首页
METAR-TAF:

METAR-TAF

机场 :

大急流城, 密歇根州, 美国

纬度: 42-52-51N, 经度: 085-31-22W, 海拔: 242米

当前天气观测

该预报发布于34分钟前的06:53 UTC
风速6节,风向
温度 2°C
湿度 93%
气压 1019 hPa
能見度: 16.1公里
阴天层高于5500英尺

METAR: KGRR 310653Z AUTO 35006KT 10SM OVC055 02/01 A3009 RMK AO2 SLP194 T00220006

时间: 03:27 (07:27 UTC)

预报

该预报发布于1小时和44分钟前的05:43 UTC
预报有效从31日的 06点(UTC)到 01日的 06点(UTC)
风速6节,风向北转西北
能見度: 10公里
阴天层高于6000英尺
从 31日的 1600点(UTC)
风速7节,风向北转东北
能見度: 10公里
阴天层高于1800英尺
从 31日的 2100点(UTC)
风速9节,风向
能見度: 10公里
阴天层高于2500英尺

TAF: KGRR 310543Z 3106/0106 33006KT P6SM OVC060 FM311600 02007KT P6SM OVC018 FM312100 36009KT P6SM OVC025

超过4000个机场的气象观测和天气预报(METAR&TAF报告)。

可查询的气象台以黄色和红色小点在地图上表示。

将鼠标移到小点上方,可查看气象台名称。

然后点击查看天气观测和预报。

如需切换地图:点击带黑十字的绿色按钮放大地图;点击带横线的绿色按钮缩小地图;或者点击绿色箭头查看邻近地区的地图。


METAR-TAF: